Time;durP1;ratioP1;P1;durP2;ratioP2;P2;SDS_P1;SDS_P2;PMS_P1;PMS_P2;Temp;Humidity;BMP_temperature;BMP_pressure;BME280_temperature;BME280_humidity;BME280_pressure;Samples;Min_cycle;Max_cycle;Signal;HPM_P1;HPM_P2
2022/05/08 00:05:40;;;;;;;30.45;17.87;;;;;;;10.95;65.42;100802.59;1656145;86;25368;-71
2022/05/08 00:08:07;;;;;;;30.45;15.83;;;;;;;10.96;66.39;100802.83;1656661;86;25636;-71
2022/05/08 00:10:33;;;;;;;20.48;14.83;;;;;;;10.97;66.53;100798.23;1656658;86;25991;-70
2022/05/08 00:13:00;;;;;;;26.30;16.00;;;;;;;11.01;66.58;100795.17;1656820;86;25713;-72
2022/05/08 00:15:26;;;;;;;25.60;16.25;;;;;;;11.02;67.06;100792.17;1655797;86;27420;-71
2022/05/08 00:17:52;;;;;;;27.02;16.30;;;;;;;11.04;67.18;100789.17;1655953;86;25753;-69
2022/05/08 00:20:18;;;;;;;26.25;15.32;;;;;;;11.07;67.30;100791.28;1656488;86;29788;-69
2022/05/08 00:22:46;;;;;;;22.60;15.78;;;;;;;11.10;67.23;100789.86;1656891;86;35248;-69
2022/05/08 00:25:12;;;;;;;25.43;16.17;;;;;;;11.12;67.31;100788.48;1656956;86;25171;-69
2022/05/08 00:27:39;;;;;;;38.55;18.35;;;;;;;11.12;67.31;100791.74;1656936;86;27389;-70
2022/05/08 00:30:07;;;;;;;23.07;15.95;;;;;;;11.13;67.06;100785.20;1656838;86;25562;-70
2022/05/08 00:32:33;;;;;;;23.20;14.85;;;;;;;11.11;67.26;100786.06;1656957;86;25480;-70
2022/05/08 00:34:59;;;;;;;25.52;16.20;;;;;;;11.10;67.56;100792.04;1656955;86;25589;-70
2022/05/08 00:37:25;;;;;;;26.00;16.00;;;;;;;11.12;67.80;100789.83;1656971;86;25550;-70
2022/05/08 00:39:51;;;;;;;28.85;17.15;;;;;;;11.12;67.51;100784.41;1656928;86;27445;-70
2022/05/08 00:42:17;;;;;;;27.90;16.73;;;;;;;11.14;67.26;100783.56;1656933;86;33343;-71
2022/05/08 00:44:43;;;;;;;31.05;17.35;;;;;;;11.14;67.20;100793.03;1656895;86;29611;-71
2022/05/08 00:47:09;;;;;;;28.30;17.73;;;;;;;11.10;67.15;100812.87;1656854;85;25436;-71
2022/05/08 00:49:36;;;;;;;26.87;16.48;;;;;;;11.04;67.40;100798.64;1656960;86;25451;-71
2022/05/08 00:52:05;;;;;;;26.15;16.82;;;;;;;11.03;67.21;100811.91;1656931;86;27315;-70
2022/05/08 00:54:32;;;;;;;24.55;16.20;;;;;;;11.01;67.53;100810.86;1644334;85;31443;-71
2022/05/08 00:56:59;;;;;;;26.75;16.30;;;;;;;11.01;67.19;100808.71;1641539;87;25491;-72
2022/05/08 00:59:26;;;;;;;29.60;17.35;;;;;;;11.02;67.09;100809.77;1641485;87;25861;-71
2022/05/08 01:01:52;;;;;;;23.95;16.48;;;;;;;11.04;67.32;100816.23;1641572;86;25488;-71
2022/05/08 01:04:18;;;;;;;30.02;17.52;;;;;;;11.05;67.43;100815.15;1641533;86;27434;-71
2022/05/08 01:06:45;;;;;;;24.15;16.20;;;;;;;11.08;67.58;100819.14;1641455;87;25614;-71
2022/05/08 01:09:12;;;;;;;26.25;17.42;;;;;;;11.09;67.58;100810.73;1644997;86;25614;-70
2022/05/08 01:11:38;;;;;;;23.73;16.45;;;;;;;11.10;67.63;100809.64;1655643;85;25610;-70
2022/05/08 01:14:04;;;;;;;27.07;16.57;;;;;;;11.13;67.67;100811.72;1655635;86;25623;-71
2022/05/08 01:16:30;;;;;;;26.87;16.90;;;;;;;11.15;67.55;100810.07;1655696;86;27251;-71
2022/05/08 01:18:57;;;;;;;25.75;16.30;;;;;;;11.16;67.54;100812.48;1655634;86;25572;-72
2022/05/08 01:21:34;;;;;;;26.55;16.40;;;;;;;11.16;67.65;100810.34;1655661;86;25450;-71
2022/05/08 01:24:00;;;;;;;27.93;17.12;;;;;;;11.18;67.79;100813.54;1655594;86;25964;-68
2022/05/08 01:26:26;;;;;;;23.95;15.80;;;;;;;11.19;67.76;100811.09;1655742;86;25600;-71
2022/05/08 01:28:53;;;;;;;28.38;16.85;;;;;;;11.19;67.86;100809.18;1655703;86;26858;-69
2022/05/08 01:31:19;;;;;;;28.77;16.25;;;;;;;11.21;67.98;100800.76;1655639;86;25538;-69
2022/05/08 01:33:45;;;;;;;28.07;15.78;;;;;;;11.21;67.97;100802.91;1655876;86;25420;-69
2022/05/08 01:36:11;;;;;;;24.82;16.07;;;;;;;11.19;68.02;100812.45;1655819;86;26001;-69
2022/05/08 01:38:37;;;;;;;32.23;16.15;;;;;;;11.17;68.19;100803.27;1655820;86;25558;-70
2022/05/08 01:41:08;;;;;;;24.40;16.15;;;;;;;11.18;68.21;100800.80;1655745;86;28037;-70
2022/05/08 01:43:36;;;;;;;23.60;15.50;;;;;;;11.18;68.36;100798.09;1655714;86;25397;-69
2022/05/08 01:46:07;;;;;;;22.20;15.83;;;;;;;11.20;68.26;100795.91;1655794;86;25570;-69
2022/05/08 01:48:34;;;;;;;24.87;15.10;;;;;;;11.20;68.43;100790.48;1655778;86;25602;-69
2022/05/08 01:51:02;;;;;;;25.75;15.78;;;;;;;11.20;68.19;100786.42;1655847;86;25570;-70
2022/05/08 01:53:35;;;;;;;23.83;16.45;;;;;;;11.21;68.23;100787.22;1655686;85;28096;-70
2022/05/08 01:56:07;;;;;;;24.98;14.53;;;;;;;11.21;68.27;100785.87;1655766;86;25597;-70
2022/05/08 01:58:32;;;;;;;24.15;15.90;;;;;;;11.21;68.18;100785.87;1655669;86;25596;-68
2022/05/08 02:01:03;;;;;;;25.17;15.78;;;;;;;11.23;68.30;100789.63;1654380;86;25992;-70
2022/05/08 02:03:30;;;;;;;22.77;14.60;;;;;;;11.24;68.62;100792.04;1655869;86;25596;-70
2022/05/08 02:05:56;;;;;;;26.60;15.25;;;;;;;11.24;68.66;100784.45;1655720;86;27381;-70
2022/05/08 02:08:22;;;;;;;25.12;15.90;;;;;;;11.22;68.71;100779.36;1655697;86;25733;-70
2022/05/08 02:10:48;;;;;;;22.42;15.53;;;;;;;11.21;68.84;100777.19;1655767;86;29685;-70
2022/05/08 02:13:15;;;;;;;25.45;16.35;;;;;;;11.19;68.93;100779.95;1655797;86;25408;-69
2022/05/08 02:15:42;;;;;;;25.95;14.90;;;;;;;11.18;68.74;100777.78;1655838;86;25571;-69
2022/05/08 02:18:09;;;;;;;22.40;14.87;;;;;;;11.19;68.79;100778.05;1655774;86;27381;-69
2022/05/08 02:20:39;;;;;;;22.77;15.75;;;;;;;11.23;68.92;100778.80;1655620;84;25570;-68
2022/05/08 02:23:06;;;;;;;;;;;;;;;11.25;68.88;100782.00;1658243;86;25386;-70
2022/05/08 02:25:33;;;;;;;21.80;13.68;;;;;;;11.28;69.12;100779.48;1627620;88;25459;-70
2022/05/08 02:28:00;;;;;;;24.02;15.43;;;;;;;11.28;68.91;100778.14;1655789;86;25484;-70
2022/05/08 02:30:27;;;;;;;21.00;14.58;;;;;;;11.46;68.92;100806.23;1655764;86;27319;-70
2022/05/08 02:32:54;;;;;;;19.52;15.20;;;;;;;11.31;69.01;100780.81;1655687;86;25690;-69
2022/05/08 02:35:22;;;;;;;25.17;15.03;;;;;;;11.31;68.95;100782.95;1655753;85;25560;-69
2022/05/08 02:37:52;;;;;;;20.62;14.53;;;;;;;11.34;69.02;100776.12;1638242;86;25872;-69
2022/05/08 02:40:20;;;;;;;23.12;14.78;;;;;;;11.37;68.97;100782.30;1655769;86;25421;-70
2022/05/08 02:42:47;;;;;;;24.90;16.50;;;;;;;11.40;69.10;100784.40;1655766;86;27342;-70
2022/05/08 02:45:13;;;;;;;22.30;15.15;;;;;;;11.41;69.07;100786.02;1655650;86;25563;-70
2022/05/08 02:47:41;;;;;;;28.92;15.30;;;;;;;11.43;69.22;100782.45;1655743;86;25482;-70
2022/05/08 02:50:09;;;;;;;22.77;14.90;;;;;;;11.45;69.14;100787.56;1655725;85;25463;-70
2022/05/08 02:52:38;;;;;;;25.50;16.10;;;;;;;11.46;69.21;100787.80;1655900;86;25571;-70
2022/05/08 03:00:39;;;;;;;25.15;14.58;;;;;;;11.48;69.44;100791.82;1654480;85;25697;-71
2022/05/08 03:03:07;;;;;;;22.80;14.00;;;;;;;11.50;69.35;100786.11;1655745;86;25636;-71
2022/05/08 03:05:34;;;;;;;21.77;14.55;;;;;;;11.49;69.38;100789.37;1655737;86;25504;-71
2022/05/08 03:08:05;;;;;;;20.48;15.48;;;;;;;11.48;69.46;100790.47;1655771;86;27944;-71
2022/05/08 03:11:25;;;;;;;21.15;14.45;;;;;;;11.48;69.50;100789.67;1655695;86;25577;-70
2022/05/08 03:12:59;;;;;;;22.10;14.58;;;;;;;11.49;69.53;100782.60;1653253;86;25471;-70
2022/05/08 03:15:25;;;;;;;23.98;15.38;;;;;;;11.52;69.54;100792.81;1655849;86;25480;-70
2022/05/08 03:17:52;;;;;;;23.73;15.75;;;;;;;11.54;69.56;100789.80;1655854;86;25601;-70
2022/05/08 03:20:19;;;;;;;17.80;14.50;;;;;;;11.57;69.86;100787.84;1655708;85;27333;-71
2022/05/08 03:22:45;;;;;;;18.62;14.07;;;;;;;11.56;69.55;100787.59;1655609;86;25610;-71
2022/05/08 03:25:12;;;;;;;21.30;13.95;;;;;;;11.57;69.75;100793.27;1655737;85;29679;-70
2022/05/08 03:27:38;;;;;;;22.58;14.63;;;;;;;11.58;69.69;100798.38;1655692;86;25470;-70
2022/05/08 03:30:06;;;;;;;21.05;13.95;;;;;;;11.57;69.62;100792.70;1655765;86;25459;-70
2022/05/08 03:32:32;;;;;;;22.70;14.35;;;;;;;11.59;69.69;100799.17;1655696;86;27410;-70
2022/05/08 03:34:58;;;;;;;23.22;14.78;;;;;;;11.59;69.88;100790.52;1655613;84;25582;-70
2022/05/08 03:37:25;;;;;;;23.87;15.03;;;;;;;11.61;69.77;100800.23;1655734;86;25498;-69
2022/05/08 03:39:51;;;;;;;24.75;15.35;;;;;;;11.62;69.88;100799.14;1655683;86;26102;-69
2022/05/08 03:42:17;;;;;;;22.42;14.35;;;;;;;11.63;70.09;100798.02;1655734;86;25544;-69
2022/05/08 03:44:43;;;;;;;24.10;14.78;;;;;;;11.65;70.00;100799.89;1655756;86;27412;-69
2022/05/08 03:47:09;;;;;;;24.32;14.73;;;;;;;11.67;70.17;100803.09;1655651;85;32860;-69
2022/05/08 03:49:35;;;;;;;20.77;14.75;;;;;;;11.67;70.17;100800.38;1655711;85;29660;-69
2022/05/08 03:52:01;;;;;;;26.70;16.45;;;;;;;11.68;70.33;100800.61;1655685;86;25612;-69
2022/05/08 03:54:27;;;;;;;19.05;15.53;;;;;;;11.67;70.50;100805.23;1655667;86;25440;-69
2022/05/08 03:56:53;;;;;;;25.60;16.12;;;;;;;11.66;70.62;100810.40;1655654;86;27322;-69
2022/05/08 03:59:19;;;;;;;25.08;16.25;;;;;;;11.68;70.81;100812.27;1655664;86;32838;-69
2022/05/08 04:01:45;;;;;;;24.43;17.98;;;;;;;11.68;70.80;100810.09;1654383;85;25538;-69
2022/05/08 04:04:11;;;;;;;24.87;16.97;;;;;;;11.68;70.90;100812.80;1655647;86;25471;-69
2022/05/08 04:06:37;;;;;;;25.75;15.25;;;;;;;11.70;70.84;100818.75;1655739;86;25497;-70
2022/05/08 04:09:04;;;;;;;23.15;14.90;;;;;;;11.72;70.85;100823.31;1655721;86;27465;-69
2022/05/08 04:11:30;;;;;;;24.43;15.55;;;;;;;11.76;70.93;100829.71;1655641;85;33311;-69
2022/05/08 04:13:56;;;;;;;30.00;16.10;;;;;;;11.79;71.01;100830.47;1655718;86;25573;-69
2022/05/08 04:16:24;;;;;;;24.50;15.75;;;;;;;11.81;71.10;100830.95;1655655;86;26061;-69
2022/05/08 04:18:51;;;;;;;23.75;17.00;;;;;;;11.86;71.24;100832.77;1655701;86;25402;-69
2022/05/08 04:21:17;;;;;;;22.85;16.82;;;;;;;11.90;71.37;100841.34;1655647;85;27358;-70
2022/05/08 04:26:30;;;;;;;29.42;19.55;;;;;;;11.98;71.51;100847.97;1655798;86;25656;-69
2022/05/08 04:28:57;;;;;;;27.80;19.02;;;;;;;12.02;71.36;100850.87;1655670;86;25410;-69
2022/05/08 04:31:23;;;;;;;27.20;18.50;;;;;;;12.05;71.46;100852.42;1655724;86;25455;-69
2022/05/08 04:33:51;;;;;;;29.67;19.40;;;;;;;12.08;71.48;100851.81;1655677;86;27315;-69
2022/05/08 04:36:18;;;;;;;27.85;19.15;;;;;;;12.12;71.34;100843.34;1655571;84;25591;-68
2022/05/08 04:38:45;;;;;;;29.00;19.20;;;;;;;12.17;71.30;100850.53;1655617;86;25488;-69
2022/05/08 04:41:11;;;;;;;28.92;18.95;;;;;;;12.19;71.22;100855.66;1655628;86;25537;-69
2022/05/08 04:43:38;;;;;;;29.23;19.02;;;;;;;12.22;71.16;100847.70;1655716;86;25455;-70
2022/05/08 04:46:05;;;;;;;24.02;17.85;;;;;;;12.26;71.18;100853.31;1655661;86;27393;-70
2022/05/08 04:48:31;;;;;;;24.85;19.05;;;;;;;12.27;71.25;100852.22;1655608;86;25614;-70
2022/05/08 04:50:57;;;;;;;31.50;18.17;;;;;;;12.28;71.19;100854.63;1655641;86;25653;-70
2022/05/08 04:53:23;;;;;;;30.65;19.07;;;;;;;12.28;71.15;100855.98;1655652;86;25646;-70
2022/05/08 04:55:49;;;;;;;25.23;15.93;;;;;;;12.30;71.13;100851.05;1662668;86;25974;-69
2022/05/08 04:58:15;;;;;;;27.75;18.25;;;;;;;12.33;71.19;100854.51;1663850;84;27343;-70
2022/05/08 05:00:41;;;;;;;25.82;17.67;;;;;;;12.34;71.38;100858.02;1663819;86;25560;-70
2022/05/08 05:03:07;;;;;;;31.75;19.50;;;;;;;12.37;71.46;100862.04;1663861;86;25554;-71
2022/05/08 05:05:34;;;;;;;26.33;17.55;;;;;;;12.42;71.54;100872.20;1663928;84;25489;-71
2022/05/08 05:08:00;;;;;;;25.30;18.60;;;;;;;12.47;71.67;100867.23;1662969;85;25642;-70
2022/05/08 05:10:26;;;;;;;26.80;18.25;;;;;;;12.50;71.87;100865.27;1664021;86;27354;-70
2022/05/08 05:12:53;;;;;;;26.12;18.35;;;;;;;12.56;71.79;100868.64;1663938;84;25607;-69
2022/05/08 05:15:19;;;;;;;25.35;18.37;;;;;;;12.60;71.95;100869.62;1663995;86;25461;-70
2022/05/08 05:17:45;;;;;;;27.27;17.75;;;;;;;12.65;71.92;100873.03;1663995;85;25484;-70
2022/05/08 05:20:12;;;;;;;32.05;18.73;;;;;;;12.71;72.08;100873.13;1664006;83;25657;-69
2022/05/08 05:22:38;;;;;;;28.67;18.15;;;;;;;12.87;72.25;100895.30;1664143;86;27270;-69
2022/05/08 05:25:09;;;;;;;30.55;18.60;;;;;;;12.85;72.15;100881.20;1664149;86;25769;-70
2022/05/08 05:27:35;;;;;;;29.90;18.98;;;;;;;12.92;72.19;100875.34;1664198;86;25474;-70
2022/05/08 05:30:03;;;;;;;23.38;17.57;;;;;;;12.99;72.23;100884.41;1664146;86;25456;-70
2022/05/08 05:32:32;;;;;;;24.00;16.62;;;;;;;13.08;72.16;100883.92;1664127;86;25565;-71
2022/05/08 05:34:58;;;;;;;;;;;;;;;13.15;72.10;100888.34;1664099;84;27186;-71
2022/05/08 05:37:24;;;;;;;27.35;17.45;;;;;;;13.25;72.36;100887.28;1635747;87;32722;-71
2022/05/08 05:39:50;;;;;;;27.62;17.62;;;;;;;13.31;72.02;100883.30;1664032;86;25648;-71
2022/05/08 05:42:16;;;;;;;31.95;19.07;;;;;;;13.39;72.06;100889.92;1664024;86;25392;-73
2022/05/08 05:44:43;;;;;;;29.42;19.17;;;;;;;13.49;72.38;100892.94;1664071;85;25633;-73
2022/05/08 05:49:53;;;;;;;25.72;18.82;;;;;;;13.72;72.40;100895.78;1663862;86;25674;-73
2022/05/08 05:52:20;;;;;;;25.52;19.17;;;;;;;13.87;72.58;100892.41;1664096;86;25636;-72
2022/05/08 05:54:46;;;;;;;26.17;18.73;;;;;;;13.99;71.90;100891.22;1664752;84;25677;-72
2022/05/08 05:57:12;;;;;;;24.75;18.73;;;;;;;14.10;70.95;100894.46;1664404;86;25417;-71
2022/05/08 05:59:40;;;;;;;27.77;19.05;;;;;;;14.22;71.19;100899.25;1664225;86;27422;-71
2022/05/08 06:02:08;;;;;;;26.90;17.23;;;;;;;14.37;71.04;100899.59;1642651;86;25629;-71
2022/05/08 06:04:34;;;;;;;24.37;17.12;;;;;;;14.54;71.05;100904.78;1664177;85;25555;-72
2022/05/08 06:07:01;;;;;;;23.38;16.27;;;;;;;14.72;70.72;100911.06;1665242;82;26286;-71
2022/05/08 06:09:27;;;;;;;24.27;15.93;;;;;;;14.86;69.98;100910.88;1664134;86;25615;-72
2022/05/08 06:11:54;;;;;;;24.85;16.93;;;;;;;14.99;69.37;100913.20;1663174;84;27936;-71
2022/05/08 06:14:20;;;;;;;28.65;18.77;;;;;;;15.07;69.03;100915.11;1663991;86;25548;-72
2022/05/08 06:16:46;;;;;;;25.17;15.85;;;;;;;15.15;68.90;100912.11;1664054;86;25626;-71
2022/05/08 06:19:12;;;;;;;23.40;15.28;;;;;;;15.25;68.70;100913.91;1664122;86;25699;-72
2022/05/08 06:21:38;;;;;;;21.33;14.98;;;;;;;15.35;68.31;100910.61;1664054;83;25648;-71
2022/05/08 06:24:07;;;;;;;19.30;14.93;;;;;;;15.50;68.54;100910.86;1664546;86;27267;-71
2022/05/08 06:26:33;;;;;;;18.23;13.28;;;;;;;15.76;69.07;100907.81;1664457;86;25710;-71
2022/05/08 06:28:59;;;;;;;21.17;15.72;;;;;;;16.05;68.85;100908.36;1664041;86;25458;-70
2022/05/08 06:31:25;;;;;;;16.82;10.48;;;;;;;16.37;68.48;100908.22;1664023;86;25645;-71
2022/05/08 06:33:51;;;;;;;13.98;9.60;;;;;;;16.64;67.63;100910.17;1664019;86;25536;-70
2022/05/08 06:36:18;;;;;;;11.22;9.60;;;;;;;16.90;66.68;100914.05;1647263;85;27403;-71
2022/05/08 06:38:45;;;;;;;12.47;8.88;;;;;;;17.18;66.08;100912.09;1647240;86;25442;-70
2022/05/08 06:41:11;;;;;;;8.78;7.60;;;;;;;17.49;65.91;100914.30;1647290;86;25465;-70
2022/05/08 06:43:42;;;;;;;13.83;7.95;;;;;;;17.81;65.55;100913.72;1647248;87;25692;-70
2022/05/08 06:46:07;;;;;;;10.80;7.50;;;;;;;18.13;64.60;100909.84;1646867;86;25468;-70
2022/05/08 06:48:33;;;;;;;18.67;11.60;;;;;;;18.41;63.82;100909.31;1647232;87;27327;-70
2022/05/08 06:51:00;;;;;;;11.05;8.05;;;;;;;18.71;62.92;100916.39;1647228;86;25602;-71
2022/05/08 06:53:27;;;;;;;12.58;7.95;;;;;;;19.04;62.86;100914.79;1647320;86;25585;-70
2022/05/08 06:55:54;;;;;;;11.30;6.72;;;;;;;19.35;61.66;100915.37;1647253;85;25785;-70
2022/05/08 06:58:20;;;;;;;10.88;7.33;;;;;;;19.58;61.39;100911.45;1647283;86;25739;-70
2022/05/08 07:03:16;;;;;;;13.98;8.38;;;;;;;20.15;60.12;100922.97;1604756;89;25704;-71
2022/05/08 07:05:45;;;;;;;10.48;7.97;;;;;;;20.34;59.27;100928.27;1604729;89;25950;-71
2022/05/08 07:08:13;;;;;;;11.38;7.47;;;;;;;20.45;58.52;100936.17;1604993;89;25893;-70
2022/05/08 07:10:39;;;;;;;13.75;7.83;;;;;;;20.45;57.05;100925.73;1603644;89;25701;-70
2022/05/08 07:13:05;;;;;;;10.95;7.78;;;;;;;20.47;56.30;100931.10;1604980;89;28073;-71
2022/05/08 07:15:31;;;;;;;13.38;8.83;;;;;;;20.43;56.11;100928.87;1604868;89;25753;-70
2022/05/08 07:17:57;;;;;;;13.88;10.03;;;;;;;20.43;56.08;100922.56;1605057;89;25652;-70
2022/05/08 07:20:23;;;;;;;9.60;7.42;;;;;;;20.39;55.17;100921.12;1605037;89;25654;-70
2022/05/08 07:22:50;;;;;;;13.62;11.38;;;;;;;20.31;55.27;100930.36;1584001;89;25732;-71
2022/05/08 07:25:16;;;;;;;12.45;8.93;;;;;;;20.26;55.42;100925.15;1605253;89;27410;-70
2022/05/08 07:27:42;;;;;;;11.65;8.50;;;;;;;20.20;55.28;100936.22;1604919;89;25710;-70
2022/05/08 07:30:10;;;;;;;10.72;7.95;;;;;;;20.15;55.38;100931.20;1605040;89;25621;-70
2022/05/08 07:32:36;;;;;;;14.47;8.48;;;;;;;20.11;55.42;100930.92;1605063;89;25685;-70
2022/05/08 07:37:49;;;;;;;13.43;9.48;;;;;;;20.05;55.22;100938.63;1604733;89;28016;-70
2022/05/08 07:40:16;;;;;;;10.93;8.38;;;;;;;20.07;55.40;100937.69;1615338;87;26418;-70
2022/05/08 07:42:42;;;;;;;14.43;9.08;;;;;;;20.05;55.42;100943.33;1645799;86;25894;-71
2022/05/08 07:45:09;;;;;;;10.70;7.90;;;;;;;20.17;55.89;100935.55;1645863;87;25731;-69
2022/05/08 07:47:36;;;;;;;10.95;9.20;;;;;;;20.49;55.87;100934.28;1646068;86;25385;-71
2022/05/08 07:50:03;;;;;;;11.63;7.17;;;;;;;20.67;55.68;100936.62;1646385;87;27436;-72
2022/05/08 07:52:29;;;;;;;11.97;6.92;;;;;;;20.90;54.49;100934.72;1646429;86;25675;-70
2022/05/08 07:54:55;;;;;;;10.28;7.45;;;;;;;21.12;53.96;100939.84;1647089;85;25712;-69
2022/05/08 07:57:21;;;;;;;16.35;11.25;;;;;;;21.15;52.97;100937.74;1645431;85;25635;-69
2022/05/08 07:59:48;;;;;;;18.57;12.60;;;;;;;21.06;52.69;100937.39;1644400;87;25509;-69
2022/05/08 08:02:14;;;;;;;13.08;7.75;;;;;;;21.08;52.77;100940.57;1644329;87;27353;-68
2022/05/08 08:04:41;;;;;;;8.40;7.25;;;;;;;21.10;52.59;100941.58;1644050;86;25831;-71
2022/05/08 08:07:08;;;;;;;9.73;6.67;;;;;;;21.08;52.33;100939.20;1644370;86;25630;-71
2022/05/08 08:09:34;;;;;;;14.47;8.20;;;;;;;21.03;52.12;100940.08;1644250;87;25407;-71
2022/05/08 08:12:00;;;;;;;10.85;7.47;;;;;;;21.00;51.89;100938.05;1643989;87;26429;-70
2022/05/08 08:14:26;;;;;;;9.58;6.60;;;;;;;20.93;51.95;100942.05;1644427;86;27412;-71
2022/05/08 08:16:53;;;;;;;38.83;23.47;;;;;;;20.87;51.87;100947.03;1643409;87;25767;-70
2022/05/08 08:19:20;;;;;;;14.95;10.13;;;;;;;20.80;51.97;100944.94;1644397;87;25451;-70
2022/05/08 08:21:46;;;;;;;9.63;7.85;;;;;;;20.75;51.96;100950.72;1644023;86;25605;-69
2022/05/08 08:24:12;;;;;;;10.50;6.80;;;;;;;20.67;51.90;100955.30;1644450;87;25421;-68
2022/05/08 08:26:40;;;;;;;10.43;7.10;;;;;;;20.58;52.02;100958.01;1643926;87;27533;-69
2022/05/08 08:29:06;;;;;;;9.38;6.97;;;;;;;20.53;51.88;100954.95;1644138;87;25823;-69
2022/05/08 08:31:33;;;;;;;8.95;6.62;;;;;;;20.45;51.72;100957.33;1644025;87;25660;-70
2022/05/08 08:33:59;;;;;;;8.45;7.05;;;;;;;20.36;51.75;100957.55;1644219;87;25760;-69
2022/05/08 08:36:25;;;;;;;11.95;7.25;;;;;;;20.30;51.83;100954.30;1644259;87;25569;-69
2022/05/08 08:38:51;;;;;;;9.83;6.85;;;;;;;20.27;52.03;100950.09;1643506;86;27462;-69
2022/05/08 08:41:21;;;;;;;7.05;5.85;;;;;;;20.21;51.84;100956.45;1642659;87;25692;-72
2022/05/08 08:49:22;;;;;;;6.40;5.65;;;;;;;20.10;51.81;100960.31;1643739;87;25665;-72
2022/05/08 08:51:50;;;;;;;9.85;5.67;;;;;;;20.09;52.15;100960.12;1643745;86;27319;-73
2022/05/08 08:54:19;;;;;;;9.18;6.20;;;;;;;20.17;52.37;100958.89;1621626;87;25517;-71
2022/05/08 08:56:48;;;;;;;9.18;5.65;;;;;;;20.22;51.91;100958.03;1640226;86;25549;-72
2022/05/08 08:59:15;;;;;;;7.20;5.45;;;;;;;20.30;52.07;100960.38;1639037;87;25739;-72
2022/05/08 09:01:43;;;;;;;8.58;5.65;;;;;;;20.46;52.06;100956.98;1683246;85;25630;-73
2022/05/08 09:04:13;;;;;;;6.70;4.95;;;;;;;20.65;51.59;100960.92;1683223;85;27380;-71
2022/05/08 09:06:42;;;;;;;6.75;5.30;;;;;;;21.07;52.19;100958.22;1682644;84;25843;-70
2022/05/08 09:09:33;;;;;;;6.58;4.35;;;;;;;21.69;51.42;100957.93;1683294;85;25443;-73
2022/05/08 09:12:00;;;;;;;6.33;4.62;;;;;;;21.96;50.06;100958.74;1686916;84;25690;-72
2022/05/08 09:14:32;;;;;;;5.97;4.62;;;;;;;22.36;49.32;100956.00;1684676;84;25815;-70
2022/05/08 09:17:04;;;;;;;8.13;4.90;;;;;;;22.72;49.29;100954.48;1686105;85;27951;-71
2022/05/08 09:19:37;;;;;;;6.70;4.35;;;;;;;23.11;48.36;100958.87;1661620;85;25367;-71
2022/05/08 09:22:07;;;;;;;9.58;4.35;;;;;;;23.42;47.34;100956.20;1685041;84;25472;-71
2022/05/08 09:24:38;;;;;;;7.05;3.85;;;;;;;23.67;46.64;100961.16;1684847;84;26195;-67
2022/05/08 09:27:17;;;;;;;5.90;4.33;;;;;;;23.72;45.30;100948.94;1683677;84;25713;-73
2022/05/08 09:29:45;;;;;;;4.60;3.70;;;;;;;23.59;43.96;100959.51;1687957;84;27323;-73
2022/05/08 09:32:39;;;;;;;6.67;4.17;;;;;;;23.38;43.97;100962.29;1684926;84;25845;-72
2022/05/08 09:35:06;;;;;;;4.08;3.62;;;;;;;23.33;43.89;100959.88;1686009;85;25613;-71
2022/05/08 09:37:32;;;;;;;5.65;4.40;;;;;;;23.29;44.09;100961.23;1687636;85;25589;-71
2022/05/08 09:40:20;;;;;;;7.78;5.42;;;;;;;23.35;44.17;100956.15;1688776;84;25188;-73
2022/05/08 09:42:47;;;;;;;7.12;5.70;;;;;;;23.50;44.18;100959.83;1688605;84;27345;-73
2022/05/08 09:45:14;;;;;;;5.25;4.22;;;;;;;23.62;44.17;100959.53;1688378;84;25713;-73
2022/05/08 09:47:49;;;;;;;7.08;4.22;;;;;;;23.75;43.50;100952.32;1688006;85;25763;-71
2022/05/08 09:50:18;;;;;;;5.03;4.15;;;;;;;24.12;43.64;100963.26;1687943;84;25714;-71
2022/05/08 09:52:45;;;;;;;5.95;3.77;;;;;;;24.24;42.56;100960.16;1688801;85;25393;-71
2022/05/08 09:55:14;;;;;;;7.60;3.90;;;;;;;24.32;42.40;100956.08;1688810;85;27315;-70
2022/05/08 09:57:41;;;;;;;5.03;4.55;;;;;;;24.61;42.13;100950.89;1696655;84;25680;-70
2022/05/08 10:00:10;;;;;;;4.72;4.25;;;;;;;24.76;41.40;100956.48;1697283;84;25608;-70
2022/05/08 10:02:39;;;;;;;19.37;12.03;;;;;;;24.95;41.38;100957.52;1697169;84;26289;-70
2022/05/08 10:05:08;;;;;;;6.40;4.42;;;;;;;25.21;41.16;100952.03;1697434;84;25682;-70
2022/05/08 10:07:40;;;;;;;5.65;4.25;;;;;;;25.41;40.68;100953.87;1697697;84;27480;-72
2022/05/08 10:15:43;;;;;;;5.75;4.62;;;;;;;25.37;39.44;100952.48;1697148;84;25715;-71
2022/05/08 10:18:28;;;;;;;7.25;4.87;;;;;;;25.25;39.26;100958.36;1697241;84;26180;-72
2022/05/08 10:21:12;;;;;;;7.17;4.85;;;;;;;25.06;38.74;100958.92;1697294;84;27329;-71
2022/05/08 10:23:45;;;;;;;9.00;5.80;;;;;;;24.63;39.08;100958.80;1697105;84;25398;-72
2022/05/08 10:26:21;;;;;;;9.08;5.12;;;;;;;24.32;39.20;100956.08;1697440;84;25681;-71
2022/05/08 10:29:12;;;;;;;7.03;4.28;;;;;;;24.10;39.62;100951.02;1697338;84;25644;-71
2022/05/08 10:31:50;;;;;;;5.53;4.17;;;;;;;23.97;40.32;100954.11;1697370;84;25394;-71
2022/05/08 10:34:32;;;;;;;7.75;4.83;;;;;;;24.03;40.46;100944.86;1697285;84;27321;-71
2022/05/08 10:37:25;;;;;;;7.05;4.62;;;;;;;23.99;40.28;100950.94;1697218;84;25652;-71
2022/05/08 10:39:53;;;;;;;5.78;4.62;;;;;;;23.92;40.02;100945.37;1697251;84;25442;-70
2022/05/08 10:42:35;;;;;;;4.97;4.22;;;;;;;23.73;40.05;100948.56;1697235;84;25664;-71
2022/05/08 10:45:03;;;;;;;6.42;5.35;;;;;;;23.59;40.09;100950.62;1697509;84;25705;-70
2022/05/08 10:47:43;;;;;;;5.85;3.27;;;;;;;23.35;39.72;100953.39;1675489;84;27818;-72
2022/05/08 10:50:13;;;;;;;4.03;3.22;;;;;;;23.10;39.95;100949.81;1697533;84;25445;-72
2022/05/08 10:52:42;;;;;;;5.20;3.45;;;;;;;22.80;40.28;100945.72;1697290;84;25685;-71
2022/05/08 10:55:15;;;;;;;4.83;3.25;;;;;;;22.59;40.31;100950.97;1697649;84;26323;-72
2022/05/08 10:57:43;;;;;;;3.30;3.00;;;;;;;22.39;40.62;100947.00;1695784;84;25283;-73
2022/05/08 11:00:14;;;;;;;3.27;2.40;;;;;;;22.18;40.51;100955.13;1695510;84;28039;-72
2022/05/08 11:02:56;;;;;;;8.35;3.02;;;;;;;21.96;40.33;100957.37;1694926;84;25847;-73
2022/05/08 11:05:36;;;;;;;8.70;4.22;;;;;;;21.76;40.91;100951.97;1695569;84;25699;-72
2022/05/08 11:08:11;;;;;;;7.92;4.08;;;;;;;21.54;40.82;100942.58;1698937;84;27192;-72
2022/05/08 11:10:43;;;;;;;8.65;2.90;;;;;;;21.43;41.50;100940.19;1695820;84;25673;-72
2022/05/08 11:13:20;;;;;;;5.25;2.75;;;;;;;21.39;41.32;100944.25;1695316;84;27329;-71
2022/05/08 11:15:50;;;;;;;8.90;3.02;;;;;;;21.35;41.55;100939.28;1694281;84;25671;-71
2022/05/08 11:18:25;;;;;;;5.17;3.30;;;;;;;21.32;41.32;100932.31;1675873;84;25612;-73
2022/05/08 11:21:00;;;;;;;6.10;2.65;;;;;;;21.25;41.43;100934.39;1694783;84;26391;-71
2022/05/08 11:23:34;;;;;;;14.35;10.03;;;;;;;21.30;41.48;100934.64;1695153;84;25671;-72
2022/05/08 11:26:09;;;;;;;4.17;3.10;;;;;;;21.36;41.83;100934.56;1675194;84;27396;-71
2022/05/08 11:28:48;;;;;;;14.75;8.85;;;;;;;21.70;42.84;100931.41;1695038;84;25617;-70
2022/05/08 11:31:19;;;;;;;6.80;2.97;;;;;;;22.49;42.88;100924.85;1695499;84;25703;-71
2022/05/08 11:36:36;;;;;;;5.78;2.80;;;;;;;23.47;40.92;100916.42;1695182;84;25588;-72
2022/05/08 11:39:17;;;;;;;4.20;3.20;;;;;;;24.07;40.01;100922.17;1694430;84;27342;-71
2022/05/08 11:41:47;;;;;;;4.55;3.40;;;;;;;24.65;38.81;100926.02;1695138;84;25402;-73
2022/05/08 11:44:20;;;;;;;5.80;2.62;;;;;;;25.08;38.15;100917.02;1698355;84;25460;-70
2022/05/08 11:46:50;;;;;;;4.10;2.45;;;;;;;25.52;37.76;100920.84;1674932;84;25751;-71
2022/05/08 11:49:32;;;;;;;6.20;2.95;;;;;;;26.10;37.46;100917.98;1695194;84;25410;-71
2022/05/08 11:52:09;;;;;;;5.87;2.45;;;;;;;26.72;36.78;100904.69;1694111;84;27349;-70
2022/05/08 11:54:40;;;;;;;4.87;2.67;;;;;;;27.31;35.79;100902.50;1675444;84;25906;-71